Time;durP1;ratioP1;P1;durP2;ratioP2;P2;SDS_P1;SDS_P2;PMS_P1;PMS_P2;Temp;Humidity;BMP_temperature;BMP_pressure;BME280_temperature;BME280_humidity;BME280_pressure;Samples;Min_cycle;Max_cycle;Signal;HPM_P1;HPM_P2
2021/06/02 00:00:07;;;;;;;4.83;4.40;;;13.30;99.90;;;;;;5076370;28;20424;-66
2021/06/02 00:02:32;;;;;;;5.87;4.80;;;13.30;99.90;;;;;;5075217;28;20907;-66
2021/06/02 00:05:02;;;;;;;6.77;5.00;;;13.20;99.90;;;;;;5076438;28;20417;-66
2021/06/02 00:07:28;;;;;;;5.87;4.80;;;13.30;99.90;;;;;;5076512;28;20686;-66
2021/06/02 00:09:54;;;;;;;5.30;4.23;;;13.30;99.90;;;;;;5076283;28;20493;-66
2021/06/02 00:12:20;;;;;;;7.30;5.10;;;13.10;99.90;;;;;;5076260;28;20236;-65
2021/06/02 00:14:46;;;;;;;5.03;4.20;;;13.20;99.90;;;;;;5075721;28;20465;-66
2021/06/02 00:17:13;;;;;;;4.87;4.33;;;13.20;99.90;;;;;;5076668;28;20938;-67
2021/06/02 00:19:39;;;;;;;5.30;4.50;;;13.00;99.90;;;;;;5076249;28;20428;-67
2021/06/02 00:22:07;;;;;;;6.90;4.70;;;12.90;99.90;;;;;;5076510;28;20449;-67
2021/06/02 00:24:34;;;;;;;9.10;5.40;;;13.10;99.90;;;;;;5076139;28;20546;-68
2021/06/02 00:27:04;;;;;;;5.43;4.90;;;13.00;99.90;;;;;;5075845;28;20462;-66
2021/06/02 00:29:31;;;;;;;5.03;4.53;;;13.10;99.90;;;;;;5076041;28;20793;-68
2021/06/02 00:31:57;;;;;;;5.80;4.87;;;13.00;99.90;;;;;;5076366;28;20441;-67
2021/06/02 00:34:26;;;;;;;7.20;5.37;;;13.20;99.90;;;;;;5074520;28;20488;-68
2021/06/02 00:36:52;;;;;;;5.57;5.07;;;13.20;99.90;;;;;;5074678;28;20450;-67
2021/06/02 00:39:18;;;;;;;7.20;4.93;;;13.00;99.90;;;;;;5074583;28;20969;-66
2021/06/02 00:41:46;;;;;;;7.30;5.10;;;12.90;99.90;;;;;;5075557;28;20533;-66
2021/06/02 00:44:17;;;;;;;6.10;5.07;;;12.90;99.90;;;;;;5075797;28;20995;-67
2021/06/02 00:46:43;;;;;;;5.33;4.60;;;12.90;99.90;;;;;;5076084;28;20823;-66
2021/06/02 00:49:11;;;;;;;6.13;5.00;;;12.90;99.90;;;;;;5075673;28;20500;-66
2021/06/02 00:51:37;;;;;;;5.57;5.03;;;12.90;99.90;;;;;;5074729;28;20441;-67
2021/06/02 00:54:04;;;;;;;7.15;5.60;;;12.90;99.90;;;;;;5075455;28;20460;-66
2021/06/02 00:56:40;;;;;;;6.50;4.17;;;12.80;99.90;;;;;;5075657;28;20197;-65
2021/06/02 00:59:09;;;;;;;7.00;5.50;;;12.90;99.90;;;;;;5074151;28;20402;-67
2021/06/02 01:01:35;;;;;;;6.27;5.10;;;12.90;99.90;;;;;;5074318;28;20958;-65
2021/06/02 01:04:03;;;;;;;5.87;5.20;;;12.80;99.90;;;;;;5075315;28;20402;-68
2021/06/02 01:06:33;;;;;;;8.23;4.97;;;12.80;99.90;;;;;;5075292;28;20567;-66
2021/06/02 01:09:01;;;;;;;5.30;4.80;;;12.80;99.90;;;;;;5074268;28;20497;-65
2021/06/02 01:11:28;;;;;;;6.35;4.70;;;12.70;99.90;;;;;;5073804;28;20233;-65
2021/06/02 01:13:59;;;;;;;8.53;5.33;;;12.60;99.90;;;;;;5073559;28;20174;-67
2021/06/02 01:16:33;;;;;;;6.00;5.40;;;12.50;99.90;;;;;;5074934;28;20446;-66
2021/06/02 01:18:59;;;;;;;6.18;4.70;;;12.30;99.90;;;;;;5075040;28;20431;-66
2021/06/02 01:21:27;;;;;;;6.30;5.10;;;12.40;99.90;;;;;;5075189;28;20654;-65
2021/06/02 01:23:58;;;;;;;8.30;5.80;;;12.50;99.90;;;;;;5073563;28;20210;-65
2021/06/02 01:26:26;;;;;;;8.13;4.90;;;12.50;99.90;;;;;;5075347;28;20894;-67
2021/06/02 01:28:53;;;;;;;7.53;4.90;;;12.30;99.90;;;;;;5074854;28;20406;-66
2021/06/02 01:31:51;;;;;;;6.83;4.87;;;12.30;99.90;;;;;;5074674;28;20534;-66
2021/06/02 01:34:47;;;;;;;6.43;5.23;;;12.20;99.90;;;;;;5074837;28;20457;-67
2021/06/02 01:37:32;;;;;;;6.80;5.23;;;12.30;99.90;;;;;;5075136;28;20461;-66
2021/06/02 01:40:33;;;;;;;5.60;5.00;;;12.20;99.90;;;;;;5074660;28;20402;-66
2021/06/02 01:43:17;;;;;;;8.00;5.60;;;12.20;99.90;;;;;;5061581;28;20910;-67
2021/06/02 01:46:04;;;;;;;8.07;5.28;;;12.10;99.90;;;;;;5074515;28;20288;-66
2021/06/02 01:49:00;;;;;;;6.40;5.53;;;12.10;99.90;;;;;;5074539;28;20227;-68
2021/06/02 01:51:53;;;;;;;5.93;4.70;;;12.10;99.90;;;;;;5058446;28;20217;-66
2021/06/02 01:54:37;;;;;;;6.25;5.38;;;12.00;99.90;;;;;;5074438;28;20696;-67
2021/06/02 01:57:31;;;;;;;5.63;4.43;;;12.10;99.90;;;;;;5073265;28;20201;-66
2021/06/02 01:59:57;;;;;;;5.80;5.00;;;12.00;99.90;;;;;;5074175;28;20240;-65
2021/06/02 02:02:33;;;;;;;7.80;5.60;;;12.00;99.90;;;;;;5074660;28;20702;-65
2021/06/02 02:05:30;;;;;;;7.28;5.32;;;12.00;99.90;;;;;;5074143;28;20176;-66
2021/06/02 02:08:14;;;;;;;8.98;5.60;;;11.80;99.90;;;;;;5072879;28;20185;-65
2021/06/02 02:10:52;;;;;;;5.82;5.22;;;12.10;99.90;;;;;;5074284;28;20200;-65
2021/06/02 02:13:36;;;;;;;6.95;5.82;;;11.90;99.90;;;;;;5074050;28;20230;-67
2021/06/02 02:16:31;;;;;;;6.13;5.50;;;11.80;99.90;;;;;;5074167;28;20585;-66
2021/06/02 02:19:33;;;;;;;7.30;5.65;;;11.80;99.90;;;;;;5073933;28;20188;-65
2021/06/02 02:22:26;;;;;;;5.57;4.95;;;11.80;99.90;;;;;;5074389;28;20193;-67
2021/06/02 02:25:17;;;;;;;6.38;4.95;;;11.90;99.90;;;;;;5073808;28;20256;-65
2021/06/02 02:27:48;;;;;;;10.18;5.88;;;11.80;99.90;;;;;;5072563;28;20181;-65
2021/06/02 02:30:30;;;;;;;8.48;5.90;;;11.80;99.90;;;;;;5073817;28;20585;-66
2021/06/02 02:33:14;;;;;;;7.85;6.22;;;11.90;99.90;;;;;;5073864;28;20191;-65
2021/06/02 02:35:58;;;;;;;7.20;5.00;;;11.80;99.90;;;;;;5073901;28;20216;-66
2021/06/02 02:38:56;;;;;;;7.85;6.35;;;11.70;99.90;;;;;;5073830;28;20208;-66
2021/06/02 02:41:59;;;;;;;6.80;5.78;;;11.90;99.90;;;;;;5072509;28;20291;-65
2021/06/02 02:44:31;;;;;;;8.30;5.63;;;11.90;99.90;;;;;;5072351;28;20234;-66
2021/06/02 02:47:13;;;;;;;7.32;5.93;;;11.90;99.90;;;;;;5073964;28;20251;-66
2021/06/02 02:49:58;;;;;;;10.38;5.72;;;11.90;99.90;;;;;;5073777;28;20223;-67
2021/06/02 02:52:43;;;;;;;9.02;5.95;;;11.80;99.90;;;;;;5074109;28;20173;-66
2021/06/02 02:55:19;;;;;;;7.10;5.75;;;11.70;99.90;;;;;;5073444;28;20212;-66
2021/06/02 02:57:51;;;;;;;8.50;5.95;;;11.70;99.90;;;;;;5072428;28;20701;-66
2021/06/02 03:00:20;;;;;;;7.88;5.68;;;11.60;99.90;;;;;;5073749;28;20220;-66
2021/06/02 03:03:14;;;;;;;6.93;6.13;;;11.40;99.90;;;;;;5073426;28;20650;-66
2021/06/02 03:05:52;;;;;;;7.65;5.50;;;11.30;99.90;;;;;;5073436;28;20221;-66
2021/06/02 03:08:55;;;;;;;9.98;5.47;;;11.30;99.90;;;;;;5073811;28;20242;-66
2021/06/02 03:11:36;;;;;;;7.75;5.60;;;11.20;99.90;;;;;;5073342;28;20228;-66
2021/06/02 03:14:15;;;;;;;6.10;5.50;;;11.20;99.90;;;;;;5073774;28;20192;-66
2021/06/02 03:16:43;;;;;;;8.43;5.97;;;11.10;99.90;;;;;;5077414;28;20193;-66
2021/06/02 03:19:13;;;;;;;6.53;5.85;;;11.10;99.90;;;;;;5076386;28;20664;-65
2021/06/02 03:22:05;;;;;;;7.00;5.50;;;11.00;99.90;;;;;;5076000;28;20693;-67
2021/06/02 03:24:54;;;;;;;9.98;6.65;;;11.00;99.90;;;;;;5075939;28;20307;-67
2021/06/02 03:27:38;;;;;;;7.15;5.78;;;11.00;99.90;;;;;;5076023;28;20645;-65
2021/06/02 03:30:26;;;;;;;8.25;5.97;;;11.00;99.90;;;;;;5077150;28;20170;-66
2021/06/02 03:33:20;;;;;;;7.30;5.40;;;11.20;99.90;;;;;;5075879;28;20650;-65
2021/06/02 03:36:05;;;;;;;6.03;5.43;;;11.20;99.90;;;;;;5076937;28;20622;-65
2021/06/02 03:39:06;;;;;;;9.20;5.35;;;11.40;99.90;;;;;;5077330;28;20186;-67
2021/06/02 03:42:01;;;;;;;6.70;5.82;;;11.40;99.90;;;;;;5076931;28;20224;-66
2021/06/02 03:45:05;;;;;;;8.20;6.70;;;11.40;99.90;;;;;;5061820;28;20205;-66
2021/06/02 03:47:52;;;;;;;8.18;7.07;;;11.40;99.90;;;;;;5076928;28;20181;-67
2021/06/02 03:50:19;;;;;;;7.70;6.10;;;11.60;99.90;;;;;;5076726;28;20219;-67
2021/06/02 03:53:27;;;;;;;6.65;5.95;;;11.70;99.90;;;;;;5076830;28;20626;-67
2021/06/02 03:55:58;;;;;;;8.75;6.35;;;11.80;99.90;;;;;;5047145;28;20323;-66
2021/06/02 03:58:40;;;;;;;8.98;7.25;;;11.80;99.90;;;;;;5075043;28;20181;-65
2021/06/02 04:01:51;;;;;;;10.80;7.45;;;11.90;99.90;;;;;;5076490;28;20189;-67
2021/06/02 04:04:19;;;;;;;8.20;6.75;;;12.00;99.90;;;;;;5073864;28;20208;-65
2021/06/02 04:07:00;;;;;;;9.85;7.00;;;12.20;99.90;;;;;;5076342;28;20189;-65
2021/06/02 04:09:28;;;;;;;9.68;7.40;;;12.20;99.90;;;;;;5076960;28;20177;-66
2021/06/02 04:12:11;;;;;;;8.32;6.47;;;12.30;99.90;;;;;;5074225;28;20243;-67
2021/06/02 04:14:39;;;;;;;7.75;6.95;;;12.30;99.90;;;;;;5076178;28;20209;-67
2021/06/02 04:17:05;;;;;;;8.88;6.82;;;12.20;99.90;;;;;;5074847;28;20197;-67
2021/06/02 04:19:32;;;;;;;7.13;6.43;;;12.30;99.90;;;;;;5076314;28;20665;-66
2021/06/02 04:22:04;;;;;;;9.38;7.10;;;12.50;99.90;;;;;;5076075;28;20698;-65
2021/06/02 04:24:31;;;;;;;9.27;7.00;;;12.60;99.90;;;;;;5075795;28;20703;-67
2021/06/02 04:26:58;;;;;;;7.77;6.97;;;12.70;99.90;;;;;;5087591;28;20196;-67
2021/06/02 04:29:26;;;;;;;9.90;6.80;;;12.90;99.90;;;;;;5096038;28;20429;-67
2021/06/02 04:31:56;;;;;;;9.13;6.68;;;12.90;99.90;;;;;;5095756;28;20459;-66
2021/06/02 04:34:23;;;;;;;7.45;6.13;;;12.90;99.90;;;;;;5096213;28;20650;-67
2021/06/02 04:36:51;;;;;;;7.67;6.70;;;13.00;99.90;;;;;;5095512;28;20192;-66
2021/06/02 04:39:18;;;;;;;9.10;6.73;;;13.00;99.90;;;;;;5094993;28;20436;-67
2021/06/02 04:41:44;;;;;;;10.33;7.00;;;13.00;99.90;;;;;;5095829;28;20433;-65
2021/06/02 04:44:13;;;;;;;9.60;7.45;;;13.10;99.90;;;;;;5094485;28;20929;-65
2021/06/02 04:46:40;;;;;;;8.37;7.20;;;13.20;99.90;;;;;;5095432;28;20279;-65
2021/06/02 04:49:05;;;;;;;11.20;7.20;;;13.20;99.90;;;;;;5096047;28;20421;-66
2021/06/02 04:52:02;;;;;;;8.47;6.67;;;13.20;99.90;;;;;;5094369;28;20976;-65
2021/06/02 04:54:34;;;;;;;12.07;6.90;;;13.30;99.90;;;;;;5074548;28;20298;-66
2021/06/02 04:57:36;;;;;;;9.03;6.37;;;13.30;99.90;;;;;;5088510;28;20958;-65
2021/06/02 05:00:10;;;;;;;8.27;7.40;;;13.30;99.90;;;;;;5095700;28;20462;-66
2021/06/02 05:03:07;;;;;;;8.20;6.90;;;13.50;99.90;;;;;;5095416;28;20435;-66
2021/06/02 05:05:51;;;;;;;6.50;5.90;;;13.50;99.90;;;;;;5092484;28;20445;-66
2021/06/02 05:08:40;;;;;;;7.20;6.50;;;13.70;99.90;;;;;;5095681;28;20815;-66
2021/06/02 05:11:43;;;;;;;7.60;6.80;;;13.80;99.90;;;;;;5091437;28;20448;-66
2021/06/02 05:14:36;;;;;;;8.50;6.80;;;14.00;99.90;;;;;;5093124;28;21069;-65
2021/06/02 05:17:11;;;;;;;10.00;7.47;;;14.10;99.90;;;;;;5092981;28;20429;-67
2021/06/02 05:22:47;;;;;;;7.80;6.93;;;14.40;99.90;;;;;;5092657;28;20440;-66
2021/06/02 05:25:38;;;;;;;7.03;6.33;;;14.50;99.90;;;;;;5092312;28;20444;-68
2021/06/02 05:28:41;;;;;;;8.33;7.40;;;14.80;99.90;;;;;;5093880;28;20449;-67
2021/06/02 05:31:43;;;;;;;8.30;6.27;;;14.90;99.90;;;;;;5094755;28;20470;-67
2021/06/02 05:34:27;;;;;;;7.03;6.20;;;14.90;99.90;;;;;;5092919;28;20983;-67
2021/06/02 05:37:12;;;;;;;9.20;6.17;;;14.90;99.90;;;;;;5094456;28;20956;-66
2021/06/02 05:39:56;;;;;;;7.97;7.17;;;15.10;99.90;;;;;;5094773;28;20436;-65
2021/06/02 05:42:21;;;;;;;8.73;7.20;;;15.10;99.90;;;;;;5093083;28;20417;-67
2021/06/02 05:45:28;;;;;;;8.70;6.20;;;15.20;99.90;;;;;;5093290;28;20432;-68
2021/06/02 05:48:05;;;;;;;7.40;6.53;;;15.30;99.90;;;;;;5092747;28;20276;-67
2021/06/02 05:50:50;;;;;;;11.00;6.70;;;15.40;99.90;;;;;;5091829;28;20510;-66
2021/06/02 05:53:54;;;;;;;7.57;6.50;;;15.60;99.90;;;;;;5092547;28;20421;-66
2021/06/02 05:56:47;;;;;;;10.53;7.00;;;15.90;99.90;;;;;;5092644;28;20810;-66
2021/06/02 05:59:37;;;;;;;7.80;6.20;;;16.60;99.90;;;;;;5093603;28;20401;-66
2021/06/02 06:02:47;;;;;;;12.40;7.27;;;16.80;99.90;;;;;;5090909;28;20449;-68
2021/06/02 06:05:19;;;;;;;10.10;6.80;;;17.30;99.90;;;;;;5069104;28;20456;-66
2021/06/02 06:08:22;;;;;;;11.93;6.83;;;17.80;99.90;;;;;;5092879;28;20524;-66
2021/06/02 06:11:09;;;;;;;8.20;7.00;;;17.90;99.90;;;;;;5093122;28;20453;-66
2021/06/02 06:13:56;;;;;;;8.30;6.70;;;17.90;99.90;;;;;;5087303;28;20413;-68
2021/06/02 06:16:59;;;;;;;8.60;6.40;;;18.10;99.90;;;;;;5092095;28;20475;-67
2021/06/02 06:20:00;;;;;;;8.30;6.00;;;18.10;99.90;;;;;;5090515;28;20485;-66
2021/06/02 06:22:34;;;;;;;8.30;5.80;;;18.40;99.90;;;;;;5091216;28;20425;-68
2021/06/02 06:25:08;;;;;;;7.03;6.10;;;18.40;99.90;;;;;;5091955;28;20427;-68
2021/06/02 06:27:49;;;;;;;6.73;6.03;;;18.70;99.90;;;;;;5091602;28;20432;-68
2021/06/02 06:30:18;;;;;;;6.53;5.80;;;18.90;99.90;;;;;;5091944;28;20891;-67
2021/06/02 06:32:47;;;;;;;7.63;5.83;;;19.10;99.90;;;;;;5091973;28;20428;-66
2021/06/02 06:35:15;;;;;;;8.67;6.80;;;19.30;99.90;;;;;;5090872;28;20538;-66
2021/06/02 06:37:47;;;;;;;7.47;6.63;;;18.80;99.90;;;;;;5090773;28;20425;-66
2021/06/02 06:40:21;;;;;;;9.23;5.77;;;18.60;99.90;;;;;;5091846;28;20452;-67
2021/06/02 06:42:51;;;;;;;7.10;6.03;;;18.20;99.90;;;;;;5090603;28;20481;-68
2021/06/02 06:45:19;;;;;;;7.00;5.70;;;18.50;99.90;;;;;;5091586;28;20441;-66
2021/06/02 06:47:48;;;;;;;8.13;5.90;;;18.50;99.90;;;;;;5090079;28;20781;-66
2021/06/02 06:50:15;;;;;;;9.07;5.87;;;18.40;99.90;;;;;;5088302;28;20941;-66
2021/06/02 06:52:44;;;;;;;6.63;5.50;;;18.80;99.90;;;;;;5087743;28;20945;-67
2021/06/02 06:55:11;;;;;;;10.20;5.23;;;18.70;99.90;;;;;;5086249;28;20484;-67
2021/06/02 06:57:39;;;;;;;6.40;4.63;;;19.00;99.90;;;;;;5087047;28;20421;-65
2021/06/02 07:00:07;;;;;;;6.60;5.13;;;18.80;99.90;;;;;;5086374;28;20448;-66
2021/06/02 07:02:35;;;;;;;7.33;6.07;;;18.90;99.90;;;;;;5085482;28;20512;-68
2021/06/02 07:05:02;;;;;;;6.17;5.13;;;18.90;99.90;;;;;;5080983;28;20673;-67
2021/06/02 07:07:28;;;;;;;5.53;5.00;;;18.90;99.90;;;;;;5086630;28;20421;-65
2021/06/02 07:09:53;;;;;;;12.40;5.13;;;18.90;99.90;;;;;;5087643;28;20445;-65
2021/06/02 07:12:24;;;;;;;4.90;4.50;;;19.40;99.90;;;;;;5088369;28;20229;-66
2021/06/02 07:14:50;;;;;;;6.77;4.57;;;19.50;99.90;;;;;;5089318;28;20228;-67
2021/06/02 07:17:20;;;;;;;5.30;4.27;;;19.40;99.90;;;;;;5090561;28;20431;-66
2021/06/02 07:19:52;;;;;;;7.67;5.63;;;19.30;99.90;;;;;;5084299;28;20477;-65
2021/06/02 07:22:23;;;;;;;6.40;4.80;;;19.50;99.90;;;;;;5089380;28;20417;-66
2021/06/02 07:24:53;;;;;;;5.27;4.20;;;19.50;99.90;;;;;;5085220;28;20434;-67
2021/06/02 07:27:19;;;;;;;4.50;4.10;;;19.50;99.90;;;;;;5080766;28;20416;-66
2021/06/02 07:29:44;;;;;;;6.53;4.50;;;19.30;99.90;;;;;;5085813;28;20484;-66
2021/06/02 07:32:10;;;;;;;5.60;4.37;;;19.40;99.90;;;;;;5089808;28;20501;-67
2021/06/02 07:34:36;;;;;;;6.27;4.13;;;20.10;99.90;;;;;;5088215;28;20778;-65
2021/06/02 07:37:01;;;;;;;5.50;4.17;;;20.20;99.90;;;;;;5090450;28;20237;-67
2021/06/02 07:39:27;;;;;;;5.53;4.00;;;20.00;99.90;;;;;;5088715;28;20536;-68
2021/06/02 07:41:53;;;;;;;4.83;3.67;;;20.50;99.90;;;;;;5090107;28;20207;-68
2021/06/02 07:44:18;;;;;;;4.20;3.80;;;20.90;99.90;;;;;;5085918;28;20180;-65
2021/06/02 07:46:44;;;;;;;4.07;3.60;;;21.20;99.90;;;;;;5085799;28;20722;-66
2021/06/02 07:49:10;;;;;;;3.70;3.40;;;21.20;99.90;;;;;;5086566;28;20173;-66
2021/06/02 07:51:36;;;;;;;3.40;3.10;;;21.30;99.90;;;;;;5085944;28;20226;-66
2021/06/02 07:54:04;;;;;;;3.70;3.40;;;21.30;99.90;;;;;;5088234;28;20187;-67
2021/06/02 07:56:29;;;;;;;4.80;3.47;;;21.30;99.90;;;;;;5088169;28;20479;-66
2021/06/02 07:58:55;;;;;;;4.20;3.77;;;21.40;99.90;;;;;;5087105;28;20459;-66
2021/06/02 08:01:20;;;;;;;3.50;3.20;;;21.40;99.90;;;;;;5091907;28;20286;-66
2021/06/02 08:03:46;;;;;;;5.30;3.37;;;21.70;99.90;;;;;;5091055;28;20236;-69
2021/06/02 08:06:12;;;;;;;3.90;3.60;;;21.50;99.90;;;;;;5093250;28;20199;-67
2021/06/02 08:08:37;;;;;;;4.60;3.80;;;21.70;99.90;;;;;;5094753;28;20182;-68
2021/06/02 08:11:03;;;;;;;4.50;3.70;;;21.90;99.90;;;;;;5095631;28;20208;-66
2021/06/02 08:13:28;;;;;;;3.90;3.30;;;22.00;99.90;;;;;;5094740;28;20187;-66
2021/06/02 08:15:54;;;;;;;3.83;3.40;;;22.00;99.90;;;;;;5094178;28;20230;-66
2021/06/02 08:18:20;;;;;;;4.47;3.13;;;22.10;99.90;;;;;;5091825;28;20183;-68
2021/06/02 08:20:45;;;;;;;3.23;2.93;;;22.20;99.90;;;;;;5095040;28;20247;-66
2021/06/02 08:23:11;;;;;;;4.30;3.03;;;22.40;99.90;;;;;;5094390;28;20590;-67
2021/06/02 08:25:37;;;;;;;3.37;3.07;;;22.40;99.90;;;;;;5089814;28;20215;-68
2021/06/02 08:28:02;;;;;;;3.50;3.20;;;22.40;99.90;;;;;;5092210;28;20195;-67
2021/06/02 08:30:28;;;;;;;3.70;3.03;;;22.50;99.90;;;;;;5093924;28;20641;-67
2021/06/02 08:32:54;;;;;;;3.20;2.80;;;22.50;99.20;;;;;;5089981;28;20511;-67
2021/06/02 08:35:21;;;;;;;3.13;2.77;;;22.70;99.90;;;;;;5092985;28;20716;-66
2021/06/02 08:37:47;;;;;;;3.70;3.40;;;22.80;99.90;;;;;;5092299;28;20185;-66
2021/06/02 08:40:14;;;;;;;3.23;2.93;;;22.90;99.90;;;;;;5094357;28;20468;-68
2021/06/02 08:42:41;;;;;;;4.17;3.03;;;23.10;99.90;;;;;;5086507;28;20667;-67
2021/06/02 08:45:08;;;;;;;2.80;2.60;;;22.90;97.50;;;;;;5087282;28;20443;-67
2021/06/02 08:47:34;;;;;;;4.10;3.20;;;22.90;99.10;;;;;;5091628;28;20889;-68
2021/06/02 08:49:59;;;;;;;5.33;3.50;;;22.80;99.40;;;;;;5088596;28;20530;-68
2021/06/02 08:52:25;;;;;;;4.60;3.30;;;22.80;98.30;;;;;;5091487;28;20207;-68
2021/06/02 08:54:50;;;;;;;4.20;2.80;;;23.00;97.90;;;;;;5090677;28;20286;-68
2021/06/02 08:57:16;;;;;;;3.17;2.87;;;23.20;99.10;;;;;;5090755;28;20220;-68
2021/06/02 08:59:42;;;;;;;3.70;2.60;;;23.20;97.90;;;;;;5093823;28;20251;-67
2021/06/02 09:02:08;;;;;;;3.37;2.63;;;23.30;97.30;;;;;;5091989;28;20449;-68
2021/06/02 09:04:34;;;;;;;3.23;2.77;;;23.30;96.70;;;;;;5092499;28;20275;-67
2021/06/02 09:07:04;;;;;;;3.87;3.37;;;23.50;97.80;;;;;;5093778;28;20239;-68
2021/06/02 09:09:31;;;;;;;6.60;3.20;;;23.00;94.20;;;;;;5093603;28;20845;-66
2021/06/02 09:12:04;;;;;;;3.90;3.50;;;23.10;97.10;;;;;;5090307;28;20551;-68
2021/06/02 09:14:31;;;;;;;3.40;3.10;;;23.20;97.20;;;;;;5090653;28;20965;-67
2021/06/02 09:17:04;;;;;;;3.27;2.97;;;22.90;96.40;;;;;;5091997;28;20538;-66
2021/06/02 09:19:40;;;;;;;2.63;2.43;;;22.80;97.00;;;;;;5089366;28;20441;-69
2021/06/02 09:22:14;;;;;;;3.67;3.30;;;23.30;97.20;;;;;;5091449;28;20462;-68
2021/06/02 09:24:54;;;;;;;3.37;2.90;;;23.40;97.20;;;;;;5090595;28;20433;-67
2021/06/02 09:27:49;;;;;;;2.90;2.70;;;23.60;94.60;;;;;;5091439;28;20435;-66
2021/06/02 09:30:26;;;;;;;3.23;2.80;;;23.50;95.80;;;;;;5088512;28;20547;-68
2021/06/02 09:32:57;;;;;;;5.10;3.43;;;23.20;93.20;;;;;;5088401;28;20821;-66
2021/06/02 09:35:41;;;;;;;3.57;2.90;;;22.90;93.10;;;;;;5077677;28;20484;-67
2021/06/02 09:38:08;;;;;;;3.70;3.30;;;22.80;92.80;;;;;;5084208;28;20425;-66
2021/06/02 09:40:38;;;;;;;4.00;3.13;;;22.80;94.20;;;;;;5077109;28;20488;-69
2021/06/02 09:43:05;;;;;;;5.37;3.10;;;23.30;94.80;;;;;;5086586;28;20785;-69
2021/06/02 09:45:32;;;;;;;2.90;2.70;;;23.10;90.60;;;;;;5091211;28;20506;-70
2021/06/02 09:48:00;;;;;;;3.30;3.00;;;23.10;90.90;;;;;;5084534;28;20425;-67
2021/06/02 09:50:27;;;;;;;3.60;3.07;;;23.20;90.70;;;;;;5091765;28;20449;-67
2021/06/02 09:52:54;;;;;;;3.30;3.00;;;23.10;91.10;;;;;;5090238;28;20424;-68
2021/06/02 09:55:28;;;;;;;3.53;2.90;;;23.20;92.50;;;;;;5090189;28;20576;-66
2021/06/02 09:58:06;;;;;;;5.87;4.00;;;23.70;93.50;;;;;;5091595;28;20853;-67
2021/06/02 10:00:33;;;;;;;4.17;3.40;;;24.10;93.40;;;;;;5091148;28;20539;-67
2021/06/02 10:03:02;;;;;;;4.10;3.70;;;24.20;93.70;;;;;;5089072;28;20550;-69
2021/06/02 10:05:46;;;;;;;2.80;2.60;;;24.10;91.90;;;;;;5088668;28;20479;-67
2021/06/02 10:08:23;;;;;;;4.27;3.50;;;24.40;93.40;;;;;;5087444;28;20926;-67
2021/06/02 10:10:51;;;;;;;3.60;2.57;;;24.10;91.60;;;;;;5089527;28;20499;-68
2021/06/02 10:13:17;;;;;;;3.93;3.30;;;23.80;92.10;;;;;;5087715;28;20523;-69
2021/06/02 10:15:48;;;;;;;3.33;3.03;;;23.70;90.70;;;;;;5087654;28;20584;-68
2021/06/02 10:18:31;;;;;;;3.20;3.00;;;23.70;91.00;;;;;;5083445;28;20177;-69
2021/06/02 10:21:10;;;;;;;3.10;2.80;;;23.60;90.30;;;;;;5079596;28;20489;-66
2021/06/02 10:23:40;;;;;;;5.20;3.70;;;23.60;89.00;;;;;;5078021;28;20433;-67
2021/06/02 10:26:07;;;;;;;3.53;3.23;;;23.60;90.50;;;;;;5091561;28;20456;-66
2021/06/02 10:28:34;;;;;;;4.07;3.63;;;23.90;91.40;;;;;;5081169;28;20470;-67
2021/06/02 10:31:01;;;;;;;3.17;2.77;;;24.20;91.90;;;;;;5092531;28;20453;-69
2021/06/02 10:33:30;;;;;;;3.30;3.00;;;24.10;89.10;;;;;;5091845;28;20432;-67
2021/06/02 10:35:58;;;;;;;3.93;3.53;;;24.40;90.50;;;;;;5088674;28;20480;-69
2021/06/02 10:38:25;;;;;;;3.90;3.03;;;24.10;90.00;;;;;;5090366;28;20432;-67
2021/06/02 10:40:51;;;;;;;3.80;3.40;;;24.50;91.60;;;;;;5090040;28;20461;-66
2021/06/02 10:43:21;;;;;;;6.33;3.33;;;24.40;90.30;;;;;;5089748;28;20444;-68
2021/06/02 10:45:55;;;;;;;3.63;3.33;;;24.20;88.20;;;;;;5085980;28;20445;-66
2021/06/02 10:48:47;;;;;;;2.97;2.63;;;24.30;90.70;;;;;;5088401;28;21064;-66
2021/06/02 10:51:39;;;;;;;3.50;3.20;;;23.90;83.50;;;;;;5086163;28;20454;-68
2021/06/02 10:54:11;;;;;;;4.50;3.07;;;24.00;86.20;;;;;;5087985;28;20445;-66
2021/06/02 10:56:40;;;;;;;3.30;2.80;;;24.40;90.50;;;;;;5090506;28;20457;-67
2021/06/02 10:59:30;;;;;;;3.00;2.80;;;24.30;86.20;;;;;;5091382;28;20433;-69
2021/06/02 11:02:08;;;;;;;3.20;2.90;;;24.10;84.70;;;;;;5087331;28;20442;-66
2021/06/02 11:04:37;;;;;;;2.97;2.73;;;24.30;87.50;;;;;;5083874;28;20968;-66
2021/06/02 11:07:25;;;;;;;2.80;2.60;;;24.10;84.80;;;;;;5083923;28;20437;-68
2021/06/02 11:09:52;;;;;;;3.27;2.97;;;24.10;86.20;;;;;;5087404;28;20950;-68
2021/06/02 11:12:17;;;;;;;3.33;3.00;;;24.20;85.00;;;;;;5085455;28;20508;-66
2021/06/02 11:14:43;;;;;;;4.80;3.27;;;23.80;85.60;;;;;;5084575;28;20970;-68
2021/06/02 11:17:11;;;;;;;3.30;3.00;;;24.00;86.30;;;;;;5085737;28;20275;-66
2021/06/02 11:19:42;;;;;;;2.93;2.70;;;24.00;85.00;;;;;;5087485;28;20217;-66
2021/06/02 11:22:13;;;;;;;3.30;2.97;;;24.30;87.40;;;;;;5086335;28;20489;-68
2021/06/02 11:24:41;;;;;;;3.43;3.20;;;23.80;87.30;;;;;;5086541;28;20829;-66
2021/06/02 11:27:15;;;;;;;5.53;2.93;;;23.50;86.70;;;;;;5087861;28;20527;-66
2021/06/02 11:29:50;;;;;;;5.70;3.40;;;23.70;87.40;;;;;;5086886;28;20468;-66
2021/06/02 11:32:21;;;;;;;4.60;3.33;;;24.30;85.90;;;;;;5089589;28;20443;-67
2021/06/02 11:34:52;;;;;;;3.13;2.83;;;24.30;87.10;;;;;;5089903;28;20488;-66
2021/06/02 11:37:20;;;;;;;3.60;2.90;;;24.30;87.90;;;;;;5093009;28;20496;-68
2021/06/02 11:39:49;;;;;;;3.10;2.90;;;24.30;83.80;;;;;;5093807;28;21119;-66
2021/06/02 11:42:28;;;;;;;14.10;5.07;;;24.50;86.80;;;;;;5092479;28;20499;-68
2021/06/02 11:44:59;;;;;;;11.67;5.23;;;24.90;87.00;;;;;;5086987;28;20440;-66
2021/06/02 11:47:25;;;;;;;6.33;3.33;;;25.00;89.10;;;;;;5090653;28;20410;-69
2021/06/02 11:50:14;;;;;;;3.97;3.00;;;25.20;89.10;;;;;;5086575;28;20507;-66
2021/06/02 11:52:40;;;;;;;6.90;3.80;;;25.20;88.60;;;;;;5093636;28;20422;-68
2021/06/02 11:55:12;;;;;;;4.30;3.20;;;25.20;89.50;;;;;;5094664;28;20473;-66
2021/06/02 11:57:43;;;;;;;3.40;3.20;;;25.20;86.80;;;;;;5089221;28;20475;-66
2021/06/02 12:00:13;;;;;;;3.07;2.80;;;25.00;86.60;;;;;;5102108;28;20806;-66
2021/06/02 12:02:39;;;;;;;3.67;3.10;;;24.70;82.30;;;;;;5093542;28;20453;-67
2021/06/02 12:05:20;;;;;;;3.57;3.27;;;24.50;81.20;;;;;;5094154;28;20434;-68
2021/06/02 12:07:47;;;;;;;2.90;2.70;;;24.40;81.30;;;;;;5090865;28;20421;-68
2021/06/02 12:10:13;;;;;;;5.07;3.33;;;24.50;85.20;;;;;;5089726;28;20458;-69
2021/06/02 12:12:41;;;;;;;4.00;3.40;;;24.70;85.30;;;;;;5090762;28;20504;-68
2021/06/02 12:15:07;;;;;;;5.40;2.90;;;24.50;86.40;;;;;;5085174;28;20469;-67
2021/06/02 12:17:34;;;;;;;2.63;2.50;;;24.30;83.90;;;;;;5084705;28;20425;-68
2021/06/02 12:20:04;;;;;;;4.53;3.10;;;24.00;83.50;;;;;;5094500;28;20436;-68
2021/06/02 12:22:29;;;;;;;3.27;2.97;;;24.10;84.60;;;;;;5100880;27;20422;-69
2021/06/02 12:25:08;;;;;;;5.47;3.63;;;24.10;84.80;;;;;;5092670;28;20449;-69
2021/06/02 12:27:58;;;;;;;3.10;2.80;;;24.40;85.90;;;;;;5091654;28;20649;-69
2021/06/02 12:30:37;;;;;;;2.77;2.53;;;24.40;87.00;;;;;;5083867;28;20453;-66
2021/06/02 12:33:07;;;;;;;6.73;3.23;;;24.20;81.30;;;;;;5087089;28;20429;-69
2021/06/02 12:35:46;;;;;;;3.50;3.20;;;23.70;83.20;;;;;;5091591;28;20521;-68
2021/06/02 12:38:16;;;;;;;2.97;2.70;;;23.50;84.30;;;;;;5091669;28;20421;-66
2021/06/02 12:40:50;;;;;;;3.60;3.30;;;23.60;83.30;;;;;;5091007;28;20447;-66
2021/06/02 12:43:25;;;;;;;5.30;3.30;;;23.60;82.60;;;;;;5084554;28;20425;-67
2021/06/02 12:45:52;;;;;;;3.07;2.80;;;23.90;84.20;;;;;;5089140;28;20465;-68
2021/06/02 12:48:32;;;;;;;4.23;3.20;;;24.20;80.60;;;;;;5090631;28;20453;-66
2021/06/02 12:50:58;;;;;;;3.10;2.90;;;24.70;84.50;;;;;;5091093;28;20480;-68
2021/06/02 12:53:36;;;;;;;3.30;3.00;;;24.70;81.90;;;;;;5085669;28;20486;-66
2021/06/02 12:56:03;;;;;;;3.63;3.33;;;25.30;83.40;;;;;;5079274;28;20757;-67
2021/06/02 12:58:32;;;;;;;4.00;3.40;;;25.20;80.60;;;;;;5085389;28;20513;-69
2021/06/02 13:01:03;;;;;;;3.57;3.27;;;25.30;80.10;;;;;;5085457;28;20459;-69
2021/06/02 13:03:29;;;;;;;3.50;3.23;;;25.00;79.80;;;;;;5087105;28;20945;-66
2021/06/02 13:05:55;;;;;;;3.27;2.97;;;25.20;81.60;;;;;;5084109;28;20917;-66
2021/06/02 13:08:23;;;;;;;3.80;3.03;;;25.00;81.60;;;;;;5085543;28;20444;-68
2021/06/02 13:10:49;;;;;;;3.50;3.20;;;25.00;82.20;;;;;;5082735;28;21038;-66
2021/06/02 13:13:16;;;;;;;3.47;3.17;;;25.50;84.80;;;;;;5088767;28;21052;-65
2021/06/02 13:15:44;;;;;;;4.23;3.20;;;25.10;80.30;;;;;;5088458;28;20481;-65
2021/06/02 13:18:22;;;;;;;4.80;3.40;;;24.70;80.50;;;;;;5086021;28;20427;-66
2021/06/02 13:20:48;;;;;;;3.50;3.13;;;24.70;81.60;;;;;;5089280;28;20451;-67
2021/06/02 13:23:19;;;;;;;4.83;3.00;;;24.70;78.80;;;;;;5078778;28;20424;-66
2021/06/02 13:26:07;;;;;;;4.60;3.33;;;25.10;81.20;;;;;;5085411;28;20468;-65